Accueil
METAR-TAF:

METAR-TAF

Aéroports :

Aéroport d'Annecy Haute-Savoie Mont-Blanc

Annecy, France

latitude: 45-55-45N, longitude: 006-05-56E, altitude: 463 m

Observation

Le bulletin a été fait il y a 38 minutes, à 08:00 UTC
Vent 2 kt de direction variable
Température 15°C
Humidité 77%
Pression 1018 hPa
Visibilité 10 km ou plus
pas de nuages en-dessous de 1500 mètres et pas de cumulonimbus.

METAR: LFLP 140800Z AUTO VRB02KT CAVOK 15/11 Q1018 NOSIG

Heure: 10:38 (08:38 UTC)

Prévision

Le bulletin a été fait il y a 6 heures et 38 minutes, à 02:00 UTC
Prévision valable du 14 à 03 UTC au 15 à 03 UTC
Vent 3 kt de direction variable
Visibilité 10 km ou plus
pas de nuages en-dessous de 1500 mètres et pas de cumulonimbus.
Temporairement
du 14 à 10 UTC au 14 à 15 UTC
Vent 7 kt de ouest/sud-ouest

TAF: LFLP 140200Z 1403/1503 VRB03KT CAVOK TEMPO 1410/1415 25007KT

Observations et prévisions météorologiques de plus de 4000 aéroports (messages METAR et TAF).

Les stations disponibles sont représentées par des disques jaunes et rouges sur la carte.

Passer la souris dessus pour voir le nom de la station.

Cliquer dessus pour voir les observations et prévisions météorologiques.

Pour changer de carte: cliquez sur les boutons verts avec une croix noire pour zoomer, sur le bouton vert avec un tiret pour effectuer un zoom arrière, ou sur les flèches vertes pour les cartes adjacentes.


METAR-TAF: